sensor_id;sensor_type;location;lat;lon;timestamp;P1;durP1;ratioP1;P2;durP2;ratioP2
39426;SDS011;25938;48.470;1.486;2023-02-08T00:01:12;10.15;;;7.82;;
39426;SDS011;25938;48.470;1.486;2023-02-08T00:03:39;12.15;;;6.82;;
39426;SDS011;25938;48.470;1.486;2023-02-08T00:06:05;7.57;;;6.35;;
39426;SDS011;25938;48.470;1.486;2023-02-08T00:08:31;9.82;;;7.55;;
39426;SDS011;25938;48.470;1.486;2023-02-08T00:10:58;9.35;;;6.70;;
39426;SDS011;25938;48.470;1.486;2023-02-08T00:13:24;11.23;;;6.80;;
39426;SDS011;25938;48.470;1.486;2023-02-08T00:15:51;9.77;;;6.85;;
39426;SDS011;25938;48.470;1.486;2023-02-08T00:18:17;11.35;;;7.60;;
39426;SDS011;25938;48.470;1.486;2023-02-08T00:20:43;10.05;;;6.68;;
39426;SDS011;25938;48.470;1.486;2023-02-08T00:23:10;7.30;;;6.53;;
39426;SDS011;25938;48.470;1.486;2023-02-08T00:25:36;10.80;;;7.75;;
39426;SDS011;25938;48.470;1.486;2023-02-08T00:28:02;10.40;;;6.93;;
39426;SDS011;25938;48.470;1.486;2023-02-08T00:30:29;10.85;;;8.65;;
39426;SDS011;25938;48.470;1.486;2023-02-08T00:32:55;9.85;;;7.03;;
39426;SDS011;25938;48.470;1.486;2023-02-08T00:35:21;10.00;;;6.80;;
39426;SDS011;25938;48.470;1.486;2023-02-08T00:37:47;10.50;;;7.90;;
39426;SDS011;25938;48.470;1.486;2023-02-08T00:40:13;9.88;;;6.63;;
39426;SDS011;25938;48.470;1.486;2023-02-08T00:42:39;10.68;;;7.53;;
39426;SDS011;25938;48.470;1.486;2023-02-08T00:45:05;10.35;;;7.50;;
39426;SDS011;25938;48.470;1.486;2023-02-08T00:47:31;11.50;;;7.63;;
39426;SDS011;25938;48.470;1.486;2023-02-08T00:49:58;12.90;;;7.90;;
39426;SDS011;25938;48.470;1.486;2023-02-08T00:52:24;10.73;;;7.38;;
39426;SDS011;25938;48.470;1.486;2023-02-08T00:54:50;9.60;;;6.82;;
39426;SDS011;25938;48.470;1.486;2023-02-08T00:57:16;11.10;;;7.07;;
39426;SDS011;25938;48.470;1.486;2023-02-08T00:59:42;9.25;;;6.82;;
39426;SDS011;25938;48.470;1.486;2023-02-08T01:02:08;8.95;;;7.10;;
39426;SDS011;25938;48.470;1.486;2023-02-08T01:04:34;10.95;;;7.68;;
39426;SDS011;25938;48.470;1.486;2023-02-08T01:07:01;10.13;;;7.32;;
39426;SDS011;25938;48.470;1.486;2023-02-08T01:09:27;10.40;;;7.90;;
39426;SDS011;25938;48.470;1.486;2023-02-08T01:11:53;11.38;;;7.25;;
39426;SDS011;25938;48.470;1.486;2023-02-08T01:14:19;8.73;;;7.25;;
39426;SDS011;25938;48.470;1.486;2023-02-08T01:16:45;11.27;;;7.53;;
39426;SDS011;25938;48.470;1.486;2023-02-08T01:19:11;12.10;;;9.07;;
39426;SDS011;25938;48.470;1.486;2023-02-08T01:21:38;9.70;;;7.40;;
39426;SDS011;25938;48.470;1.486;2023-02-08T01:24:05;10.98;;;7.68;;
39426;SDS011;25938;48.470;1.486;2023-02-08T01:26:31;9.02;;;7.20;;
39426;SDS011;25938;48.470;1.486;2023-02-08T01:28:58;9.52;;;6.93;;
39426;SDS011;25938;48.470;1.486;2023-02-08T01:31:25;12.20;;;7.53;;
39426;SDS011;25938;48.470;1.486;2023-02-08T01:33:53;8.98;;;6.80;;
39426;SDS011;25938;48.470;1.486;2023-02-08T01:36:19;9.05;;;7.32;;
39426;SDS011;25938;48.470;1.486;2023-02-08T01:38:45;10.35;;;7.00;;
39426;SDS011;25938;48.470;1.486;2023-02-08T01:41:15;9.57;;;6.55;;
39426;SDS011;25938;48.470;1.486;2023-02-08T01:46:26;8.95;;;6.78;;
39426;SDS011;25938;48.470;1.486;2023-02-08T01:48:52;11.80;;;7.50;;
39426;SDS011;25938;48.470;1.486;2023-02-08T01:51:21;9.43;;;6.80;;
39426;SDS011;25938;48.470;1.486;2023-02-08T01:53:50;7.72;;;6.82;;
39426;SDS011;25938;48.470;1.486;2023-02-08T01:56:22;9.45;;;6.75;;
39426;SDS011;25938;48.470;1.486;2023-02-08T01:58:50;10.45;;;6.57;;
39426;SDS011;25938;48.470;1.486;2023-02-08T02:01:18;9.73;;;6.38;;
39426;SDS011;25938;48.470;1.486;2023-02-08T02:03:44;9.00;;;6.65;;
39426;SDS011;25938;48.470;1.486;2023-02-08T02:06:12;11.43;;;7.20;;
39426;SDS011;25938;48.470;1.486;2023-02-08T02:08:39;9.02;;;5.88;;
39426;SDS011;25938;48.470;1.486;2023-02-08T02:11:07;11.38;;;6.13;;
39426;SDS011;25938;48.470;1.486;2023-02-08T02:13:34;8.85;;;6.72;;
39426;SDS011;25938;48.470;1.486;2023-02-08T02:16:02;10.00;;;6.63;;
39426;SDS011;25938;48.470;1.486;2023-02-08T02:18:29;9.70;;;6.57;;
39426;SDS011;25938;48.470;1.486;2023-02-08T02:34:14;10.43;;;6.82;;
39426;SDS011;25938;48.470;1.486;2023-02-08T02:42:05;8.77;;;6.18;;
39426;SDS011;25938;48.470;1.486;2023-02-08T02:45:06;7.13;;;5.88;;
39426;SDS011;25938;48.470;1.486;2023-02-08T02:50:15;7.43;;;6.20;;
39426;SDS011;25938;48.470;1.486;2023-02-08T02:52:50;9.30;;;5.97;;
39426;SDS011;25938;48.470;1.486;2023-02-08T02:55:21;9.50;;;6.25;;
39426;SDS011;25938;48.470;1.486;2023-02-08T02:57:48;8.02;;;6.30;;
39426;SDS011;25938;48.470;1.486;2023-02-08T03:00:18;7.78;;;6.63;;
39426;SDS011;25938;48.470;1.486;2023-02-08T03:02:45;7.93;;;5.25;;
39426;SDS011;25938;48.470;1.486;2023-02-08T03:05:11;6.90;;;6.00;;
39426;SDS011;25938;48.470;1.486;2023-02-08T03:07:49;7.68;;;5.32;;
39426;SDS011;25938;48.470;1.486;2023-02-08T03:13:22;7.30;;;5.65;;
39426;SDS011;25938;48.470;1.486;2023-02-08T03:15:59;9.45;;;5.97;;
39426;SDS011;25938;48.470;1.486;2023-02-08T03:18:38;9.45;;;5.82;;
39426;SDS011;25938;48.470;1.486;2023-02-08T03:21:14;11.20;;;6.43;;
39426;SDS011;25938;48.470;1.486;2023-02-08T03:27:05;8.95;;;6.90;;
39426;SDS011;25938;48.470;1.486;2023-02-08T03:29:08;10.32;;;7.43;;
39426;SDS011;25938;48.470;1.486;2023-02-08T03:31:44;8.88;;;6.55;;
39426;SDS011;25938;48.470;1.486;2023-02-08T03:34:19;9.35;;;5.93;;
39426;SDS011;25938;48.470;1.486;2023-02-08T03:36:48;9.90;;;7.05;;
39426;SDS011;25938;48.470;1.486;2023-02-08T03:39:16;9.02;;;6.20;;
39426;SDS011;25938;48.470;1.486;2023-02-08T03:41:45;9.88;;;6.60;;
39426;SDS011;25938;48.470;1.486;2023-02-08T03:44:19;11.35;;;7.22;;
39426;SDS011;25938;48.470;1.486;2023-02-08T03:46:48;9.55;;;6.53;;
39426;SDS011;25938;48.470;1.486;2023-02-08T03:49:18;10.75;;;7.28;;
39426;SDS011;25938;48.470;1.486;2023-02-08T03:51:45;8.98;;;6.47;;
39426;SDS011;25938;48.470;1.486;2023-02-08T03:54:16;10.55;;;6.68;;
39426;SDS011;25938;48.470;1.486;2023-02-08T03:57:25;12.18;;;8.13;;
39426;SDS011;25938;48.470;1.486;2023-02-08T03:59:34;8.98;;;7.05;;
39426;SDS011;25938;48.470;1.486;2023-02-08T04:02:01;9.13;;;7.15;;
39426;SDS011;25938;48.470;1.486;2023-02-08T04:04:28;10.98;;;7.05;;
39426;SDS011;25938;48.470;1.486;2023-02-08T04:06:55;12.70;;;7.93;;
39426;SDS011;25938;48.470;1.486;2023-02-08T04:09:22;11.40;;;7.25;;
39426;SDS011;25938;48.470;1.486;2023-02-08T04:11:48;10.82;;;7.80;;
39426;SDS011;25938;48.470;1.486;2023-02-08T04:14:14;9.90;;;7.50;;
39426;SDS011;25938;48.470;1.486;2023-02-08T04:16:40;10.32;;;7.18;;
39426;SDS011;25938;48.470;1.486;2023-02-08T04:19:06;10.07;;;7.30;;
39426;SDS011;25938;48.470;1.486;2023-02-08T04:21:32;11.00;;;7.43;;
39426;SDS011;25938;48.470;1.486;2023-02-08T04:23:58;9.77;;;7.30;;
39426;SDS011;25938;48.470;1.486;2023-02-08T04:26:25;9.27;;;6.82;;
39426;SDS011;25938;48.470;1.486;2023-02-08T04:28:51;10.60;;;7.30;;
39426;SDS011;25938;48.470;1.486;2023-02-08T04:31:17;9.35;;;6.68;;
39426;SDS011;25938;48.470;1.486;2023-02-08T04:33:43;12.57;;;7.93;;
39426;SDS011;25938;48.470;1.486;2023-02-08T04:36:09;8.10;;;6.55;;
39426;SDS011;25938;48.470;1.486;2023-02-08T04:38:35;9.52;;;7.53;;
39426;SDS011;25938;48.470;1.486;2023-02-08T04:41:01;9.57;;;6.55;;
39426;SDS011;25938;48.470;1.486;2023-02-08T04:43:27;11.05;;;7.70;;
39426;SDS011;25938;48.470;1.486;2023-02-08T04:45:53;9.30;;;7.78;;
39426;SDS011;25938;48.470;1.486;2023-02-08T04:48:19;8.32;;;6.60;;
39426;SDS011;25938;48.470;1.486;2023-02-08T04:50:45;9.13;;;7.00;;
39426;SDS011;25938;48.470;1.486;2023-02-08T04:53:11;11.15;;;7.63;;
39426;SDS011;25938;48.470;1.486;2023-02-08T04:55:37;11.65;;;7.22;;
39426;SDS011;25938;48.470;1.486;2023-02-08T04:58:03;9.35;;;6.80;;
39426;SDS011;25938;48.470;1.486;2023-02-08T05:00:30;8.13;;;7.18;;
39426;SDS011;25938;48.470;1.486;2023-02-08T05:02:57;8.85;;;7.43;;
39426;SDS011;25938;48.470;1.486;2023-02-08T05:05:23;8.43;;;7.05;;
39426;SDS011;25938;48.470;1.486;2023-02-08T05:07:51;9.98;;;7.07;;
39426;SDS011;25938;48.470;1.486;2023-02-08T05:10:17;10.32;;;6.97;;
39426;SDS011;25938;48.470;1.486;2023-02-08T05:12:43;12.13;;;7.82;;
39426;SDS011;25938;48.470;1.486;2023-02-08T05:15:09;9.82;;;7.40;;
39426;SDS011;25938;48.470;1.486;2023-02-08T05:17:36;8.60;;;6.28;;
39426;SDS011;25938;48.470;1.486;2023-02-08T05:20:03;9.70;;;6.75;;
39426;SDS011;25938;48.470;1.486;2023-02-08T05:22:30;10.25;;;7.35;;
39426;SDS011;25938;48.470;1.486;2023-02-08T05:24:56;10.48;;;7.40;;
39426;SDS011;25938;48.470;1.486;2023-02-08T05:27:22;7.75;;;6.57;;
39426;SDS011;25938;48.470;1.486;2023-02-08T05:29:48;8.02;;;5.85;;
39426;SDS011;25938;48.470;1.486;2023-02-08T05:32:15;10.45;;;6.80;;
39426;SDS011;25938;48.470;1.486;2023-02-08T05:34:41;9.73;;;7.13;;
39426;SDS011;25938;48.470;1.486;2023-02-08T05:37:07;10.63;;;7.55;;
39426;SDS011;25938;48.470;1.486;2023-02-08T05:39:33;9.55;;;6.70;;
39426;SDS011;25938;48.470;1.486;2023-02-08T05:41:59;9.48;;;7.25;;
39426;SDS011;25938;48.470;1.486;2023-02-08T05:44:25;9.57;;;7.30;;
39426;SDS011;25938;48.470;1.486;2023-02-08T05:46:51;11.90;;;8.10;;
39426;SDS011;25938;48.470;1.486;2023-02-08T05:49:17;11.38;;;6.65;;
39426;SDS011;25938;48.470;1.486;2023-02-08T05:51:43;10.00;;;7.28;;
39426;SDS011;25938;48.470;1.486;2023-02-08T05:54:09;8.65;;;7.10;;
39426;SDS011;25938;48.470;1.486;2023-02-08T05:56:35;11.82;;;8.05;;
39426;SDS011;25938;48.470;1.486;2023-02-08T05:59:02;7.72;;;6.93;;
39426;SDS011;25938;48.470;1.486;2023-02-08T06:01:28;10.05;;;7.43;;
39426;SDS011;25938;48.470;1.486;2023-02-08T06:03:54;9.00;;;7.75;;
39426;SDS011;25938;48.470;1.486;2023-02-08T06:06:20;13.15;;;8.02;;
39426;SDS011;25938;48.470;1.486;2023-02-08T06:08:46;10.43;;;7.13;;
39426;SDS011;25938;48.470;1.486;2023-02-08T06:11:12;10.95;;;7.43;;
39426;SDS011;25938;48.470;1.486;2023-02-08T06:13:38;8.48;;;7.00;;
39426;SDS011;25938;48.470;1.486;2023-02-08T06:16:05;9.02;;;6.32;;
39426;SDS011;25938;48.470;1.486;2023-02-08T06:18:31;10.45;;;6.90;;
39426;SDS011;25938;48.470;1.486;2023-02-08T06:20:57;8.43;;;6.80;;
39426;SDS011;25938;48.470;1.486;2023-02-08T06:23:23;9.35;;;6.60;;
39426;SDS011;25938;48.470;1.486;2023-02-08T06:25:49;9.45;;;6.60;;
39426;SDS011;25938;48.470;1.486;2023-02-08T06:28:15;8.52;;;6.75;;
39426;SDS011;25938;48.470;1.486;2023-02-08T06:30:42;11.57;;;7.07;;
39426;SDS011;25938;48.470;1.486;2023-02-08T06:33:08;9.82;;;7.47;;
39426;SDS011;25938;48.470;1.486;2023-02-08T06:35:34;10.60;;;7.97;;
39426;SDS011;25938;48.470;1.486;2023-02-08T06:38:00;10.38;;;7.18;;
39426;SDS011;25938;48.470;1.486;2023-02-08T06:40:26;8.68;;;7.13;;
39426;SDS011;25938;48.470;1.486;2023-02-08T06:42:52;9.93;;;7.75;;
39426;SDS011;25938;48.470;1.486;2023-02-08T06:45:18;8.80;;;6.75;;
39426;SDS011;25938;48.470;1.486;2023-02-08T06:47:44;9.38;;;7.47;;
39426;SDS011;25938;48.470;1.486;2023-02-08T06:50:10;8.73;;;6.70;;
39426;SDS011;25938;48.470;1.486;2023-02-08T06:52:36;11.15;;;8.00;;
39426;SDS011;25938;48.470;1.486;2023-02-08T06:55:03;8.45;;;7.13;;
39426;SDS011;25938;48.470;1.486;2023-02-08T06:57:29;10.32;;;7.22;;
39426;SDS011;25938;48.470;1.486;2023-02-08T06:59:55;9.88;;;6.95;;
39426;SDS011;25938;48.470;1.486;2023-02-08T07:02:21;10.40;;;8.10;;
39426;SDS011;25938;48.470;1.486;2023-02-08T07:04:48;8.75;;;7.00;;
39426;SDS011;25938;48.470;1.486;2023-02-08T07:07:14;10.77;;;7.03;;
39426;SDS011;25938;48.470;1.486;2023-02-08T07:09:40;6.50;;;5.78;;
39426;SDS011;25938;48.470;1.486;2023-02-08T07:12:07;16.77;;;9.95;;
39426;SDS011;25938;48.470;1.486;2023-02-08T07:14:34;15.68;;;12.02;;
39426;SDS011;25938;48.470;1.486;2023-02-08T07:17:01;12.30;;;9.77;;
39426;SDS011;25938;48.470;1.486;2023-02-08T07:19:27;14.00;;;9.68;;
39426;SDS011;25938;48.470;1.486;2023-02-08T07:21:53;11.05;;;8.82;;
39426;SDS011;25938;48.470;1.486;2023-02-08T07:24:20;11.52;;;9.05;;
39426;SDS011;25938;48.470;1.486;2023-02-08T07:26:46;12.88;;;9.32;;
39426;SDS011;25938;48.470;1.486;2023-02-08T07:29:12;11.88;;;8.23;;
39426;SDS011;25938;48.470;1.486;2023-02-08T07:31:38;13.25;;;8.70;;
39426;SDS011;25938;48.470;1.486;2023-02-08T07:34:04;13.38;;;8.95;;
39426;SDS011;25938;48.470;1.486;2023-02-08T07:36:30;12.07;;;8.70;;
39426;SDS011;25938;48.470;1.486;2023-02-08T07:38:56;11.35;;;8.77;;
39426;SDS011;25938;48.470;1.486;2023-02-08T07:41:22;12.25;;;8.48;;
39426;SDS011;25938;48.470;1.486;2023-02-08T07:43:48;11.93;;;8.57;;
39426;SDS011;25938;48.470;1.486;2023-02-08T07:46:15;11.98;;;8.55;;
39426;SDS011;25938;48.470;1.486;2023-02-08T07:48:42;12.35;;;9.55;;
39426;SDS011;25938;48.470;1.486;2023-02-08T07:51:08;9.57;;;8.45;;
39426;SDS011;25938;48.470;1.486;2023-02-08T07:53:34;9.63;;;8.57;;
39426;SDS011;25938;48.470;1.486;2023-02-08T07:56:01;8.93;;;7.28;;
39426;SDS011;25938;48.470;1.486;2023-02-08T07:58:27;11.57;;;8.88;;
39426;SDS011;25938;48.470;1.486;2023-02-08T08:00:53;12.63;;;7.22;;
39426;SDS011;25938;48.470;1.486;2023-02-08T08:03:20;10.40;;;7.35;;
39426;SDS011;25938;48.470;1.486;2023-02-08T08:05:46;10.25;;;7.97;;
39426;SDS011;25938;48.470;1.486;2023-02-08T08:08:12;10.25;;;6.80;;
39426;SDS011;25938;48.470;1.486;2023-02-08T08:10:38;10.13;;;7.80;;
39426;SDS011;25938;48.470;1.486;2023-02-08T08:13:04;8.50;;;6.95;;
39426;SDS011;25938;48.470;1.486;2023-02-08T08:15:30;9.40;;;7.25;;
39426;SDS011;25938;48.470;1.486;2023-02-08T08:17:57;9.55;;;6.65;;
39426;SDS011;25938;48.470;1.486;2023-02-08T08:20:23;8.30;;;6.45;;
39426;SDS011;25938;48.470;1.486;2023-02-08T08:22:49;8.85;;;6.25;;
39426;SDS011;25938;48.470;1.486;2023-02-08T08:25:15;9.70;;;7.60;;
39426;SDS011;25938;48.470;1.486;2023-02-08T08:27:41;8.80;;;7.05;;
39426;SDS011;25938;48.470;1.486;2023-02-08T08:30:08;7.78;;;6.10;;
39426;SDS011;25938;48.470;1.486;2023-02-08T08:32:36;8.73;;;6.93;;
39426;SDS011;25938;48.470;1.486;2023-02-08T08:35:02;7.30;;;6.45;;
39426;SDS011;25938;48.470;1.486;2023-02-08T08:37:28;9.18;;;7.28;;
39426;SDS011;25938;48.470;1.486;2023-02-08T08:39:54;9.85;;;7.65;;
39426;SDS011;25938;48.470;1.486;2023-02-08T08:42:20;8.50;;;7.10;;
39426;SDS011;25938;48.470;1.486;2023-02-08T08:44:46;9.38;;;6.78;;
39426;SDS011;25938;48.470;1.486;2023-02-08T08:47:12;9.52;;;6.75;;
39426;SDS011;25938;48.470;1.486;2023-02-08T08:49:39;7.75;;;6.25;;
39426;SDS011;25938;48.470;1.486;2023-02-08T08:52:06;7.85;;;6.00;;
39426;SDS011;25938;48.470;1.486;2023-02-08T08:54:33;9.40;;;6.78;;
39426;SDS011;25938;48.470;1.486;2023-02-08T08:56:59;8.32;;;6.30;;
39426;SDS011;25938;48.470;1.486;2023-02-08T08:59:25;8.88;;;6.53;;
39426;SDS011;25938;48.470;1.486;2023-02-08T09:01:51;8.35;;;6.55;;
39426;SDS011;25938;48.470;1.486;2023-02-08T09:04:18;6.82;;;5.75;;
39426;SDS011;25938;48.470;1.486;2023-02-08T09:06:46;8.07;;;6.00;;
39426;SDS011;25938;48.470;1.486;2023-02-08T09:09:13;6.82;;;6.00;;
39426;SDS011;25938;48.470;1.486;2023-02-08T09:11:39;10.60;;;6.40;;
39426;SDS011;25938;48.470;1.486;2023-02-08T09:14:05;7.80;;;6.13;;
39426;SDS011;25938;48.470;1.486;2023-02-08T09:16:31;9.50;;;6.88;;
39426;SDS011;25938;48.470;1.486;2023-02-08T09:19:01;9.18;;;6.65;;
39426;SDS011;25938;48.470;1.486;2023-02-08T09:21:27;10.50;;;6.50;;
39426;SDS011;25938;48.470;1.486;2023-02-08T09:23:53;8.60;;;6.80;;
39426;SDS011;25938;48.470;1.486;2023-02-08T09:26:19;8.75;;;6.35;;
39426;SDS011;25938;48.470;1.486;2023-02-08T09:28:45;10.18;;;6.53;;
39426;SDS011;25938;48.470;1.486;2023-02-08T09:31:14;8.73;;;6.40;;
39426;SDS011;25938;48.470;1.486;2023-02-08T09:33:40;8.60;;;5.78;;
39426;SDS011;25938;48.470;1.486;2023-02-08T09:36:06;7.97;;;6.13;;
39426;SDS011;25938;48.470;1.486;2023-02-08T09:38:33;9.30;;;6.03;;
39426;SDS011;25938;48.470;1.486;2023-02-08T09:46:11;6.15;;;5.47;;
39426;SDS011;25938;48.470;1.486;2023-02-08T09:48:40;7.63;;;5.65;;
39426;SDS011;25938;48.470;1.486;2023-02-08T09:53:36;7.43;;;5.43;;
39426;SDS011;25938;48.470;1.486;2023-02-08T09:56:06;9.27;;;6.03;;
39426;SDS011;25938;48.470;1.486;2023-02-08T09:58:45;8.98;;;6.43;;
39426;SDS011;25938;48.470;1.486;2023-02-08T10:01:27;8.27;;;7.05;;
39426;SDS011;25938;48.470;1.486;2023-02-08T10:03:58;7.70;;;5.82;;
39426;SDS011;25938;48.470;1.486;2023-02-08T10:06:25;10.35;;;6.30;;
39426;SDS011;25938;48.470;1.486;2023-02-08T10:08:51;9.55;;;6.05;;
39426;SDS011;25938;48.470;1.486;2023-02-08T10:21:43;10.10;;;6.32;;
39426;SDS011;25938;48.470;1.486;2023-02-08T10:27:02;9.88;;;6.05;;
39426;SDS011;25938;48.470;1.486;2023-02-08T10:29:54;8.77;;;5.88;;
39426;SDS011;25938;48.470;1.486;2023-02-08T10:34:59;10.25;;;5.97;;
39426;SDS011;25938;48.470;1.486;2023-02-08T10:37:29;7.13;;;5.93;;
39426;SDS011;25938;48.470;1.486;2023-02-08T10:39:59;8.15;;;6.53;;
39426;SDS011;25938;48.470;1.486;2023-02-08T10:42:28;9.40;;;5.95;;
39426;SDS011;25938;48.470;1.486;2023-02-08T10:49:56;8.70;;;6.45;;
39426;SDS011;25938;48.470;1.486;2023-02-08T10:52:24;8.82;;;5.70;;
39426;SDS011;25938;48.470;1.486;2023-02-08T10:54:50;6.55;;;5.40;;
39426;SDS011;25938;48.470;1.486;2023-02-08T10:57:19;7.68;;;6.40;;
39426;SDS011;25938;48.470;1.486;2023-02-08T10:59:50;7.20;;;5.55;;
39426;SDS011;25938;48.470;1.486;2023-02-08T11:05:01;8.35;;;5.95;;
39426;SDS011;25938;48.470;1.486;2023-02-08T11:09:53;6.65;;;5.63;;
39426;SDS011;25938;48.470;1.486;2023-02-08T11:15:03;7.88;;;5.32;;
39426;SDS011;25938;48.470;1.486;2023-02-08T11:17:30;6.78;;;5.05;;
39426;SDS011;25938;48.470;1.486;2023-02-08T11:19:58;7.85;;;5.20;;
39426;SDS011;25938;48.470;1.486;2023-02-08T11:22:25;7.68;;;4.93;;
39426;SDS011;25938;48.470;1.486;2023-02-08T11:24:59;6.43;;;4.28;;
39426;SDS011;25938;48.470;1.486;2023-02-08T11:27:36;7.57;;;5.20;;
39426;SDS011;25938;48.470;1.486;2023-02-08T11:32:36;6.97;;;4.65;;
39426;SDS011;25938;48.470;1.486;2023-02-08T11:35:18;9.60;;;6.05;;
39426;SDS011;25938;48.470;1.486;2023-02-08T11:37:46;9.50;;;5.80;;
39426;SDS011;25938;48.470;1.486;2023-02-08T11:40:16;7.20;;;4.85;;
39426;SDS011;25938;48.470;1.486;2023-02-08T11:42:43;6.57;;;5.13;;
39426;SDS011;25938;48.470;1.486;2023-02-08T11:45:24;6.78;;;4.65;;
39426;SDS011;25938;48.470;1.486;2023-02-08T11:47:52;7.25;;;5.28;;
39426;SDS011;25938;48.470;1.486;2023-02-08T11:50:36;6.90;;;5.45;;
39426;SDS011;25938;48.470;1.486;2023-02-08T11:53:06;6.50;;;4.90;;
39426;SDS011;25938;48.470;1.486;2023-02-08T11:55:33;7.80;;;5.38;;
39426;SDS011;25938;48.470;1.486;2023-02-08T12:00:38;6.35;;;4.75;;
39426;SDS011;25938;48.470;1.486;2023-02-08T12:13:39;6.15;;;5.18;;
39426;SDS011;25938;48.470;1.486;2023-02-08T12:19:21;5.72;;;4.97;;
39426;SDS011;25938;48.470;1.486;2023-02-08T12:21:24;6.00;;;4.45;;
39426;SDS011;25938;48.470;1.486;2023-02-08T12:24:01;6.78;;;4.78;;
39426;SDS011;25938;48.470;1.486;2023-02-08T12:49:44;6.57;;;4.18;;
39426;SDS011;25938;48.470;1.486;2023-02-08T12:55:33;5.95;;;3.60;;
39426;SDS011;25938;48.470;1.486;2023-02-08T12:57:38;6.05;;;4.40;;
39426;SDS011;25938;48.470;1.486;2023-02-08T13:00:05;5.13;;;3.78;;
39426;SDS011;25938;48.470;1.486;2023-02-08T13:04:59;4.75;;;3.05;;
39426;SDS011;25938;48.470;1.486;2023-02-08T13:07:29;5.70;;;3.17;;
39426;SDS011;25938;48.470;1.486;2023-02-08T13:12:31;4.22;;;3.30;;
39426;SDS011;25938;48.470;1.486;2023-02-08T13:15:05;3.08;;;2.78;;
39426;SDS011;25938;48.470;1.486;2023-02-08T13:20:06;4.53;;;3.30;;
39426;SDS011;25938;48.470;1.486;2023-02-08T13:22:37;4.53;;;3.10;;
39426;SDS011;25938;48.470;1.486;2023-02-08T13:25:04;2.90;;;2.55;;
39426;SDS011;25938;48.470;1.486;2023-02-08T13:27:31;3.88;;;3.03;;
39426;SDS011;25938;48.470;1.486;2023-02-08T13:29:57;4.53;;;3.17;;
39426;SDS011;25938;48.470;1.486;2023-02-08T13:32:25;3.05;;;2.65;;
39426;SDS011;25938;48.470;1.486;2023-02-08T13:35:02;5.60;;;3.00;;
39426;SDS011;25938;48.470;1.486;2023-02-08T13:37:31;3.20;;;2.55;;
39426;SDS011;25938;48.470;1.486;2023-02-08T13:40:07;2.85;;;2.50;;
39426;SDS011;25938;48.470;1.486;2023-02-08T13:42:45;4.45;;;3.03;;
39426;SDS011;25938;48.470;1.486;2023-02-08T13:45:22;4.70;;;3.05;;
39426;SDS011;25938;48.470;1.486;2023-02-08T13:47:55;6.75;;;3.42;;
39426;SDS011;25938;48.470;1.486;2023-02-08T13:53:06;4.80;;;3.25;;
39426;SDS011;25938;48.470;1.486;2023-02-08T13:55:43;5.18;;;3.00;;
39426;SDS011;25938;48.470;1.486;2023-02-08T14:03:29;4.40;;;3.05;;
39426;SDS011;25938;48.470;1.486;2023-02-08T14:05:59;4.60;;;3.50;;
39426;SDS011;25938;48.470;1.486;2023-02-08T14:11:01;6.00;;;2.35;;
39426;SDS011;25938;48.470;1.486;2023-02-08T14:13:29;4.82;;;3.05;;
39426;SDS011;25938;48.470;1.486;2023-02-08T14:18:49;4.30;;;3.08;;
39426;SDS011;25938;48.470;1.486;2023-02-08T14:21:22;4.80;;;2.90;;
39426;SDS011;25938;48.470;1.486;2023-02-08T14:23:55;4.07;;;2.72;;
39426;SDS011;25938;48.470;1.486;2023-02-08T14:26:23;4.50;;;2.88;;
39426;SDS011;25938;48.470;1.486;2023-02-08T14:28:52;4.25;;;2.95;;
39426;SDS011;25938;48.470;1.486;2023-02-08T14:31:19;3.97;;;2.83;;
39426;SDS011;25938;48.470;1.486;2023-02-08T14:33:52;2.78;;;2.50;;
39426;SDS011;25938;48.470;1.486;2023-02-08T14:36:28;6.43;;;2.95;;
39426;SDS011;25938;48.470;1.486;2023-02-08T14:39:03;3.75;;;3.22;;
39426;SDS011;25938;48.470;1.486;2023-02-08T14:46:56;3.63;;;2.53;;
39426;SDS011;25938;48.470;1.486;2023-02-08T14:49:22;4.30;;;3.20;;
39426;SDS011;25938;48.470;1.486;2023-02-08T14:52:01;3.25;;;2.67;;
39426;SDS011;25938;48.470;1.486;2023-02-08T14:54:31;4.80;;;3.20;;
39426;SDS011;25938;48.470;1.486;2023-02-08T14:57:00;5.05;;;2.47;;
39426;SDS011;25938;48.470;1.486;2023-02-08T14:59:27;5.38;;;2.92;;
39426;SDS011;25938;48.470;1.486;2023-02-08T15:01:56;5.03;;;2.67;;
39426;SDS011;25938;48.470;1.486;2023-02-08T15:04:22;3.35;;;2.28;;
39426;SDS011;25938;48.470;1.486;2023-02-08T15:09:22;2.33;;;2.05;;
39426;SDS011;25938;48.470;1.486;2023-02-08T15:11:56;3.58;;;2.42;;
39426;SDS011;25938;48.470;1.486;2023-02-08T15:14:23;3.47;;;3.05;;
39426;SDS011;25938;48.470;1.486;2023-02-08T15:16:49;4.28;;;3.15;;
39426;SDS011;25938;48.470;1.486;2023-02-08T15:21:50;4.50;;;3.03;;
39426;SDS011;25938;48.470;1.486;2023-02-08T15:24:17;4.20;;;3.08;;
39426;SDS011;25938;48.470;1.486;2023-02-08T15:26:47;3.60;;;2.97;;
39426;SDS011;25938;48.470;1.486;2023-02-08T15:29:21;3.97;;;3.03;;
39426;SDS011;25938;48.470;1.486;2023-02-08T15:31:47;5.22;;;2.70;;
39426;SDS011;25938;48.470;1.486;2023-02-08T15:34:14;3.83;;;2.70;;
39426;SDS011;25938;48.470;1.486;2023-02-08T15:36:43;5.50;;;2.63;;
39426;SDS011;25938;48.470;1.486;2023-02-08T15:39:16;4.88;;;3.40;;
39426;SDS011;25938;48.470;1.486;2023-02-08T15:41:46;4.97;;;2.92;;
39426;SDS011;25938;48.470;1.486;2023-02-08T15:46:42;4.35;;;2.80;;
39426;SDS011;25938;48.470;1.486;2023-02-08T15:49:16;3.00;;;2.60;;
39426;SDS011;25938;48.470;1.486;2023-02-08T15:51:42;4.47;;;2.63;;
39426;SDS011;25938;48.470;1.486;2023-02-08T15:54:14;4.05;;;3.15;;
39426;SDS011;25938;48.470;1.486;2023-02-08T15:56:44;4.40;;;2.67;;
39426;SDS011;25938;48.470;1.486;2023-02-08T15:59:13;3.88;;;3.17;;
39426;SDS011;25938;48.470;1.486;2023-02-08T16:01:44;3.70;;;2.50;;
39426;SDS011;25938;48.470;1.486;2023-02-08T16:04:11;4.20;;;3.00;;
39426;SDS011;25938;48.470;1.486;2023-02-08T16:06:45;4.22;;;3.42;;
39426;SDS011;25938;48.470;1.486;2023-02-08T16:09:12;4.88;;;3.00;;
39426;SDS011;25938;48.470;1.486;2023-02-08T16:11:41;3.55;;;3.10;;
39426;SDS011;25938;48.470;1.486;2023-02-08T16:14:12;3.42;;;2.72;;
39426;SDS011;25938;48.470;1.486;2023-02-08T16:16:46;6.38;;;3.92;;
39426;SDS011;25938;48.470;1.486;2023-02-08T16:19:29;4.20;;;3.42;;
39426;SDS011;25938;48.470;1.486;2023-02-08T16:22:14;5.03;;;3.78;;
39426;SDS011;25938;48.470;1.486;2023-02-08T16:24:40;4.00;;;3.10;;
39426;SDS011;25938;48.470;1.486;2023-02-08T16:27:15;3.95;;;3.00;;
39426;SDS011;25938;48.470;1.486;2023-02-08T16:29:44;5.70;;;3.58;;
39426;SDS011;25938;48.470;1.486;2023-02-08T16:34:46;4.80;;;3.50;;
39426;SDS011;25938;48.470;1.486;2023-02-08T16:37:23;5.78;;;4.10;;
39426;SDS011;25938;48.470;1.486;2023-02-08T16:39:55;5.85;;;3.90;;
39426;SDS011;25938;48.470;1.486;2023-02-08T16:42:23;7.88;;;5.18;;
39426;SDS011;25938;48.470;1.486;2023-02-08T16:44:58;7.55;;;5.32;;
39426;SDS011;25938;48.470;1.486;2023-02-08T16:47:34;12.60;;;7.18;;
39426;SDS011;25938;48.470;1.486;2023-02-08T16:50:00;10.07;;;6.25;;
39426;SDS011;25938;48.470;1.486;2023-02-08T16:52:26;11.43;;;6.30;;
39426;SDS011;25938;48.470;1.486;2023-02-08T16:54:52;14.15;;;7.05;;
39426;SDS011;25938;48.470;1.486;2023-02-08T16:57:18;10.68;;;6.65;;
39426;SDS011;25938;48.470;1.486;2023-02-08T16:59:44;11.77;;;6.60;;
39426;SDS011;25938;48.470;1.486;2023-02-08T17:02:11;10.02;;;6.40;;
39426;SDS011;25938;48.470;1.486;2023-02-08T17:04:37;9.10;;;6.32;;
39426;SDS011;25938;48.470;1.486;2023-02-08T17:07:03;12.25;;;6.22;;
39426;SDS011;25938;48.470;1.486;2023-02-08T17:09:29;9.93;;;5.70;;
39426;SDS011;25938;48.470;1.486;2023-02-08T17:11:55;9.68;;;6.22;;
39426;SDS011;25938;48.470;1.486;2023-02-08T17:14:21;9.77;;;5.80;;
39426;SDS011;25938;48.470;1.486;2023-02-08T17:16:47;8.20;;;6.32;;